createdAt,value
2018-02-21T00:00:17.648Z,91529.79
2018-02-21T00:01:06.709Z,91531.72
2018-02-21T00:01:55.774Z,91538.63
2018-02-21T00:02:44.809Z,91531.36
2018-02-21T00:03:33.875Z,91531.27
2018-02-21T00:04:22.957Z,91525.95
2018-02-21T00:05:12.082Z,91531.54
2018-02-21T00:06:01.131Z,91520.72
2018-02-21T00:06:50.178Z,91530.12
2018-02-21T00:07:39.219Z,91527.02
2018-02-21T00:08:28.271Z,91524.53
2018-02-21T00:09:17.327Z,91525.16
2018-02-21T00:10:06.371Z,91525.98
2018-02-21T00:10:55.814Z,91523.94
2018-02-21T00:11:44.848Z,91523.75
2018-02-21T00:12:33.900Z,91524.64
2018-02-21T00:13:22.953Z,91523.58
2018-02-21T00:14:11.999Z,91517.02
2018-02-21T00:15:01.038Z,91523.40
2018-02-21T00:15:50.107Z,91525.08
2018-02-21T00:16:39.655Z,91523.92
2018-02-21T00:17:28.704Z,91520.47
2018-02-21T00:18:17.762Z,91522.51
2018-02-21T00:19:06.841Z,91519.59
2018-02-21T00:19:56.098Z,91519.06
2018-02-21T00:20:45.159Z,91519.95
2018-02-21T00:21:34.277Z,91517.02
2018-02-21T00:22:23.329Z,91513.74
2018-02-21T00:23:12.405Z,91521.98
2018-02-21T00:24:01.485Z,91520.83
2018-02-21T00:24:50.529Z,91512.95
2018-02-21T00:25:39.593Z,91518.88
2018-02-21T00:26:28.651Z,91511.88
2018-02-21T00:27:17.827Z,91515.61
2018-02-21T00:28:06.886Z,91517.09
2018-02-21T00:28:55.948Z,91512.33
2018-02-21T00:29:45.001Z,91519.77
2018-02-21T00:30:34.053Z,91516.31
2018-02-21T00:31:23.104Z,91519.06
2018-02-21T00:32:12.163Z,91520.66
2018-02-21T00:33:01.239Z,91516.14
2018-02-21T00:33:50.276Z,91521.72
2018-02-21T00:34:39.325Z,91520.39
2018-02-21T00:35:28.364Z,91521.09
2018-02-21T00:36:17.416Z,91515.95
2018-02-21T00:37:06.474Z,91518.97
2018-02-21T00:37:55.520Z,91518.97
2018-02-21T00:38:44.609Z,91520.38
2018-02-21T00:39:33.668Z,91520.55
2018-02-21T00:40:22.730Z,91518.61
2018-02-21T00:41:11.766Z,91511.17
2018-02-21T00:42:00.830Z,91518.44
2018-02-21T00:42:49.879Z,91516.48
2018-02-21T00:43:39.131Z,91518.34
2018-02-21T00:44:28.265Z,91519.59
2018-02-21T00:45:17.299Z,91517.64
2018-02-21T00:46:06.333Z,91510.37
2018-02-21T00:46:55.375Z,91520.30
2018-02-21T00:47:44.430Z,91517.64
2018-02-21T00:48:33.484Z,91512.33
2018-02-21T00:49:22.530Z,91520.83
2018-02-21T00:50:11.606Z,91517.81
2018-02-21T00:51:00.664Z,91515.78
2018-02-21T00:51:49.717Z,91511.79
2018-02-21T00:52:38.769Z,91512.05
2018-02-21T00:53:27.812Z,91516.84
2018-02-21T00:54:16.867Z,91516.48
2018-02-21T00:55:05.930Z,91517.28
2018-02-21T00:55:55.050Z,91515.42
2018-02-21T00:56:44.125Z,91514.86
2018-02-21T00:57:33.158Z,91512.87
2018-02-21T00:58:22.470Z,91512.28
2018-02-21T00:59:11.545Z,91512.52
2018-02-21T01:00:00.603Z,91510.59
2018-02-21T01:00:49.674Z,91515.02
2018-02-21T01:01:38.955Z,91511.92
2018-02-21T01:02:28.036Z,91508.78
2018-02-21T01:03:17.083Z,91513.33
2018-02-21T01:04:06.202Z,91510.87
2018-02-21T01:04:55.278Z,91516.48
2018-02-21T01:05:44.338Z,91517.80
2018-02-21T01:06:33.436Z,91517.52
2018-02-21T01:07:22.485Z,91518.20
2018-02-21T01:08:11.535Z,91513.52
2018-02-21T01:09:00.610Z,91513.61
2018-02-21T01:09:49.693Z,91516.63
2018-02-21T01:10:38.747Z,91516.16
2018-02-21T01:11:27.789Z,91517.14
2018-02-21T01:12:16.826Z,91514.30
2018-02-21T01:13:05.859Z,91515.74
2018-02-21T01:13:54.934Z,91518.69
2018-02-21T01:14:44.067Z,91516.31
2018-02-21T01:15:33.102Z,91516.16
2018-02-21T01:16:22.149Z,91514.15
2018-02-21T01:17:11.192Z,91515.66
2018-02-21T01:18:00.231Z,91518.08
2018-02-21T01:18:49.275Z,91518.53
2018-02-21T01:19:38.332Z,91517.83
2018-02-21T01:20:27.602Z,91520.84
2018-02-21T01:21:16.658Z,91522.25
2018-02-21T01:22:05.769Z,91520.05
2018-02-21T01:22:54.822Z,91520.64
2018-02-21T01:23:43.881Z,91515.64
2018-02-21T01:24:32.967Z,91516.34
2018-02-21T01:25:22.017Z,91521.42
2018-02-21T01:26:11.077Z,91521.91
2018-02-21T01:27:00.141Z,91514.24
2018-02-21T01:27:49.188Z,91514.48
2018-02-21T01:28:38.249Z,91520.17
2018-02-21T01:29:27.296Z,91516.07
2018-02-21T01:30:16.473Z,91508.75
2018-02-21T01:31:05.539Z,91517.96
2018-02-21T01:31:54.613Z,91517.42
2018-02-21T01:32:43.669Z,91516.20
2018-02-21T01:33:32.716Z,91514.08
2018-02-21T01:34:21.763Z,91516.04
2018-02-21T01:35:10.807Z,91513.41
2018-02-21T01:35:59.888Z,91515.29
2018-02-21T01:36:48.924Z,91515.72
2018-02-21T01:37:37.959Z,91515.41
2018-02-21T01:38:26.995Z,91513.40
2018-02-21T01:39:16.030Z,91520.53
2018-02-21T01:40:05.075Z,91519.80
2018-02-21T01:40:54.110Z,91518.34
2018-02-21T01:41:43.191Z,91520.19
2018-02-21T01:42:32.223Z,91519.35
2018-02-21T01:43:21.293Z,91521.25
2018-02-21T01:44:10.330Z,91519.55
2018-02-21T01:44:59.366Z,91516.94
2018-02-21T01:45:48.405Z,91522.41
2018-02-21T01:46:37.438Z,91520.42
2018-02-21T01:47:26.683Z,91511.89
2018-02-21T01:48:15.728Z,91514.88
2018-02-21T01:49:04.767Z,91517.17
2018-02-21T01:49:53.816Z,91515.78
2018-02-21T01:50:58.651Z,91513.43
2018-02-21T01:51:47.704Z,91515.63
2018-02-21T01:52:37.161Z,91510.46
2018-02-21T01:53:26.261Z,91511.03
2018-02-21T01:54:15.308Z,91509.42
2018-02-21T01:55:04.368Z,91522.20
2018-02-21T01:55:53.412Z,91514.02
2018-02-21T01:56:42.447Z,91519.38
2018-02-21T01:57:31.474Z,91517.38
2018-02-21T01:58:20.524Z,91515.94
2018-02-21T01:59:09.620Z,91517.17
2018-02-21T01:59:58.688Z,91513.00
2018-02-21T02:00:47.726Z,91513.84
2018-02-21T02:01:36.780Z,91521.44
2018-02-21T02:02:25.834Z,91518.91
2018-02-21T02:03:14.896Z,91516.17
2018-02-21T02:04:03.970Z,91521.77
2018-02-21T02:04:53.084Z,91508.84
2018-02-21T02:05:42.140Z,91513.45
2018-02-21T02:06:31.247Z,91510.70
2018-02-21T02:07:20.279Z,91515.48
2018-02-21T02:08:09.324Z,91518.16
2018-02-21T02:08:58.398Z,91517.61
2018-02-21T02:09:47.448Z,91518.13
2018-02-21T02:10:36.626Z,91517.49
2018-02-21T02:11:25.688Z,91519.45
2018-02-21T02:12:15.202Z,91514.42
2018-02-21T02:13:04.248Z,91513.86
2018-02-21T02:13:53.292Z,91511.98
2018-02-21T02:14:42.370Z,91512.03
2018-02-21T02:15:31.417Z,91513.27
2018-02-21T02:16:20.459Z,91514.96
2018-02-21T02:17:09.619Z,91509.70
2018-02-21T02:17:58.693Z,91512.39
2018-02-21T02:18:47.738Z,91516.45
2018-02-21T02:19:36.799Z,91509.62
2018-02-21T02:20:25.841Z,91512.81
2018-02-21T02:21:14.899Z,91513.14
2018-02-21T02:22:03.965Z,91511.87
2018-02-21T02:22:53.103Z,91513.64
2018-02-21T02:23:42.148Z,91511.72
2018-02-21T02:24:31.186Z,91507.77
2018-02-21T02:25:20.233Z,91512.67
2018-02-21T02:26:09.284Z,91509.90
2018-02-21T02:26:58.337Z,91516.30
2018-02-21T02:27:47.396Z,91512.05
2018-02-21T02:28:36.674Z,91504.38
2018-02-21T02:29:25.718Z,91507.47
2018-02-21T02:30:14.765Z,91505.16
2018-02-21T02:31:03.821Z,91507.36
2018-02-21T02:31:52.932Z,91507.38
2018-02-21T02:32:42.002Z,91506.95
2018-02-21T02:33:31.038Z,91509.20
2018-02-21T02:34:20.075Z,91508.39
2018-02-21T02:35:09.163Z,91508.48
2018-02-21T02:35:58.203Z,91502.99
2018-02-21T02:36:47.252Z,91505.38
2018-02-21T02:37:36.304Z,91499.36
2018-02-21T02:38:36.887Z,91504.38
2018-02-21T02:39:37.572Z,91503.73
2018-02-21T02:40:26.826Z,91506.58
2018-02-21T02:41:15.872Z,91503.95
2018-02-21T02:42:04.912Z,91506.42
2018-02-21T02:42:54.001Z,91504.30
2018-02-21T02:43:43.041Z,91505.98
2018-02-21T02:44:32.106Z,91503.21
2018-02-21T02:45:21.180Z,91506.22
2018-02-21T02:46:10.264Z,91502.15
2018-02-21T02:46:59.306Z,91500.94
2018-02-21T02:47:48.349Z,91501.10
2018-02-21T02:48:37.425Z,91500.56
2018-02-21T02:49:26.485Z,91496.62
2018-02-21T02:50:15.529Z,91497.33
2018-02-21T02:51:04.576Z,91500.08
2018-02-21T02:51:53.688Z,91503.80
2018-02-21T02:52:42.773Z,91496.02
2018-02-21T02:53:31.830Z,91497.94
2018-02-21T02:54:20.897Z,91504.11
2018-02-21T02:55:09.934Z,91501.20
2018-02-21T02:55:58.975Z,91500.44
2018-02-21T02:56:48.016Z,91496.82
2018-02-21T02:57:37.152Z,91496.78
2018-02-21T02:58:26.209Z,91492.33
2018-02-21T02:59:15.260Z,91492.00
2018-02-21T03:00:04.352Z,91491.81
2018-02-21T03:00:53.406Z,91502.08
2018-02-21T03:01:42.457Z,91502.93
2018-02-21T03:02:31.514Z,91500.77
2018-02-21T03:03:20.779Z,91491.22
2018-02-21T03:04:09.829Z,91495.49
2018-02-21T03:04:58.888Z,91501.39
2018-02-21T03:05:47.941Z,91501.74
2018-02-21T03:06:36.987Z,91497.78
2018-02-21T03:07:26.070Z,91490.50
2018-02-21T03:08:15.122Z,91497.63
2018-02-21T03:09:04.252Z,91494.10
2018-02-21T03:09:53.310Z,91497.75
2018-02-21T03:10:42.371Z,91491.40
2018-02-21T03:11:31.426Z,91494.14
2018-02-21T03:12:20.466Z,91492.98
2018-02-21T03:13:09.502Z,91495.87
2018-02-21T03:13:58.591Z,91491.45
2018-02-21T03:14:47.654Z,91498.36
2018-02-21T03:15:36.690Z,91495.80
2018-02-21T03:16:25.827Z,91497.04
2018-02-21T03:17:14.873Z,91495.90
2018-02-21T03:18:03.952Z,91495.05
2018-02-21T03:18:53.008Z,91497.85
2018-02-21T03:19:42.066Z,91493.64
2018-02-21T03:20:31.117Z,91497.01
2018-02-21T03:21:20.162Z,91491.85
2018-02-21T03:22:09.662Z,91491.73
2018-02-21T03:22:58.711Z,91488.55
2018-02-21T03:23:47.756Z,91492.95
2018-02-21T03:24:36.799Z,91486.73
2018-02-21T03:25:25.837Z,91490.00
2018-02-21T03:26:14.870Z,91486.35
2018-02-21T03:27:03.981Z,91486.35
2018-02-21T03:27:53.022Z,91493.19
2018-02-21T03:28:42.070Z,91487.05
2018-02-21T03:29:31.115Z,91490.73
2018-02-21T03:30:20.148Z,91491.50
2018-02-21T03:31:09.207Z,91489.88
2018-02-21T03:31:58.365Z,91496.28
2018-02-21T03:32:47.425Z,91493.77
2018-02-21T03:33:36.466Z,91491.07
2018-02-21T03:34:25.519Z,91491.42
2018-02-21T03:35:14.570Z,91491.34
2018-02-21T03:36:03.630Z,91490.09
2018-02-21T03:36:52.685Z,91490.83
2018-02-21T03:37:42.015Z,91494.86
2018-02-21T03:38:31.067Z,91494.27
2018-02-21T03:39:20.136Z,91497.14
2018-02-21T03:40:09.194Z,91494.89
2018-02-21T03:40:58.239Z,91485.25
2018-02-21T03:41:47.287Z,91492.49
2018-02-21T03:42:36.362Z,91484.92
2018-02-21T03:43:25.398Z,91488.80
2018-02-21T03:44:14.437Z,91487.52
2018-02-21T03:45:03.484Z,91485.77
2018-02-21T03:45:52.577Z,91486.22
2018-02-21T03:46:41.621Z,91491.44
2018-02-21T03:47:30.677Z,91488.88
2018-02-21T03:48:19.836Z,91488.02
2018-02-21T03:49:09.024Z,91487.80
2018-02-21T03:49:58.083Z,91484.80
2018-02-21T03:50:47.135Z,91486.23
2018-02-21T03:51:36.208Z,91487.11
2018-02-21T03:52:25.271Z,91484.18
2018-02-21T03:53:14.323Z,91488.70
2018-02-21T03:54:03.667Z,91482.73
2018-02-21T03:54:52.725Z,91478.59
2018-02-21T03:55:41.782Z,91482.38
2018-02-21T03:56:30.836Z,91482.59
2018-02-21T03:57:19.891Z,91478.13
2018-02-21T03:58:08.931Z,91473.34
2018-02-21T03:58:58.040Z,91474.20
2018-02-21T03:59:47.079Z,91477.13
2018-02-21T04:00:36.119Z,91477.72
2018-02-21T04:01:25.164Z,91477.38
2018-02-21T04:02:14.211Z,91480.15
2018-02-21T04:03:03.255Z,91480.17
2018-02-21T04:03:52.308Z,91481.09
2018-02-21T04:04:41.413Z,91480.04
2018-02-21T04:05:30.451Z,91475.78
2018-02-21T04:06:19.485Z,91474.55
2018-02-21T04:08:24.464Z,91476.53
2018-02-21T04:09:13.503Z,91473.58
2018-02-21T04:10:02.554Z,91472.70
2018-02-21T04:10:51.609Z,91473.74
2018-02-21T04:11:40.659Z,91480.77
2018-02-21T04:12:29.735Z,91475.89
2018-02-21T04:13:18.784Z,91480.06
2018-02-21T04:14:07.818Z,91482.27
2018-02-21T04:14:56.870Z,91482.50
2018-02-21T04:15:45.917Z,91483.50
2018-02-21T04:16:34.979Z,91486.64
2018-02-21T04:17:24.298Z,91476.81
2018-02-21T04:18:13.559Z,91487.31
2018-02-21T04:19:02.625Z,91476.40
2018-02-21T04:19:51.679Z,91481.52
2018-02-21T04:20:43.944Z,91480.20
2018-02-21T04:21:32.989Z,91483.90
2018-02-21T04:22:22.080Z,91486.16
2018-02-21T04:23:11.130Z,91481.70
2018-02-21T04:24:00.161Z,91484.86
2018-02-21T04:24:49.197Z,91487.76
2018-02-21T04:25:38.242Z,91476.66
2018-02-21T04:26:27.292Z,91486.27
2018-02-21T04:27:16.341Z,91478.79
2018-02-21T04:28:05.485Z,91477.86
2018-02-21T04:28:54.533Z,91480.14
2018-02-21T04:29:43.580Z,91481.72
2018-02-21T04:30:32.645Z,91480.82
2018-02-21T04:31:21.678Z,91475.66
2018-02-21T04:32:10.740Z,91477.53
2018-02-21T04:32:59.805Z,91484.49
2018-02-21T04:33:48.873Z,91472.47
2018-02-21T04:34:37.914Z,91477.03
2018-02-21T04:35:26.961Z,91476.94
2018-02-21T04:36:16.004Z,91479.97
2018-02-21T04:37:05.059Z,91474.17
2018-02-21T04:37:54.123Z,91470.55
2018-02-21T04:38:43.207Z,91473.53
2018-02-21T04:39:32.634Z,91471.85
2018-02-21T04:40:21.746Z,91475.97
2018-02-21T04:41:10.800Z,91474.48
2018-02-21T04:41:59.892Z,91477.77
2018-02-21T04:42:48.928Z,91476.33
2018-02-21T04:43:38.014Z,91478.83
2018-02-21T04:44:27.078Z,91482.59
2018-02-21T04:45:16.126Z,91482.66
2018-02-21T04:46:05.320Z,91473.33
2018-02-21T04:46:54.377Z,91481.61
2018-02-21T04:47:43.414Z,91484.05
2018-02-21T04:48:32.476Z,91477.25
2018-02-21T04:49:21.568Z,91481.31
2018-02-21T04:50:10.588Z,91479.96
2018-02-21T04:50:59.622Z,91481.00
2018-02-21T04:51:48.714Z,91483.06
2018-02-21T04:52:37.765Z,91482.05
2018-02-21T04:53:27.636Z,91477.94
2018-02-21T04:55:39.633Z,91485.96
2018-02-21T04:56:48.536Z,91493.45
2018-02-21T04:57:43.026Z,91492.27
2018-02-21T04:58:49.886Z,91488.99
2018-02-21T05:01:04.817Z,91490.58
2018-02-21T05:01:53.886Z,91487.64
2018-02-21T05:02:42.928Z,91490.65
2018-02-21T05:03:31.976Z,91492.09
2018-02-21T05:04:21.107Z,91495.41
2018-02-21T05:05:10.142Z,91487.36
2018-02-21T05:05:59.184Z,91493.11
2018-02-21T05:06:48.263Z,91493.34
2018-02-21T05:07:37.316Z,91494.44
2018-02-21T05:08:26.373Z,91489.03
2018-02-21T05:09:15.419Z,91491.52
2018-02-21T05:10:04.507Z,91496.29
2018-02-21T05:10:53.550Z,91493.57
2018-02-21T05:11:42.607Z,91496.89
2018-02-21T05:12:31.646Z,91494.78
2018-02-21T05:13:20.758Z,91494.36
2018-02-21T05:14:09.819Z,91493.39
2018-02-21T05:14:58.865Z,91501.20
2018-02-21T05:15:47.912Z,91492.67
2018-02-21T05:16:36.997Z,91499.68
2018-02-21T05:17:26.084Z,91495.73
2018-02-21T05:18:17.507Z,91500.42
2018-02-21T05:19:06.568Z,91495.52
2018-02-21T05:19:55.611Z,91496.20
2018-02-21T05:20:44.744Z,91492.77
2018-02-21T05:21:33.774Z,91495.48
2018-02-21T05:22:22.841Z,91499.69
2018-02-21T05:23:11.996Z,91497.23
2018-02-21T05:24:01.051Z,91496.86
2018-02-21T05:24:50.130Z,91503.29
2018-02-21T05:25:39.183Z,91497.84
2018-02-21T05:26:28.233Z,91502.98
2018-02-21T05:27:17.289Z,91503.27
2018-02-21T05:28:06.343Z,91497.80
2018-02-21T05:28:55.429Z,91501.42
2018-02-21T05:29:44.498Z,91501.95
2018-02-21T05:30:33.548Z,91497.66
2018-02-21T05:31:22.610Z,91498.23
2018-02-21T05:32:11.664Z,91495.72
2018-02-21T05:33:00.720Z,91496.72
2018-02-21T05:33:49.773Z,91496.66
2018-02-21T05:34:39.130Z,91499.30
2018-02-21T05:35:28.191Z,91503.89
2018-02-21T05:36:17.268Z,91502.89
2018-02-21T05:37:06.381Z,91499.62
2018-02-21T05:37:55.416Z,91504.50
2018-02-21T05:38:44.465Z,91501.79
2018-02-21T05:39:33.520Z,91498.53
2018-02-21T05:40:22.555Z,91502.05
2018-02-21T05:41:11.767Z,91504.12
2018-02-21T05:42:00.810Z,91501.57
2018-02-21T05:42:49.841Z,91500.17
2018-02-21T05:43:38.878Z,91504.57
2018-02-21T05:44:27.927Z,91505.05
2018-02-21T05:45:16.975Z,91504.70
2018-02-21T05:46:06.036Z,91502.89
2018-02-21T05:46:55.153Z,91500.09
2018-02-21T05:47:44.206Z,91504.77
2018-02-21T05:48:33.247Z,91503.73
2018-02-21T05:49:22.289Z,91505.28
2018-02-21T05:50:11.349Z,91506.80
2018-02-21T05:51:00.417Z,91504.31
2018-02-21T05:51:49.476Z,91508.81
2018-02-21T05:52:39.054Z,91508.97
2018-02-21T05:53:28.079Z,91508.88
2018-02-21T05:54:17.136Z,91511.32
2018-02-21T05:55:06.183Z,91513.41
2018-02-21T05:55:55.251Z,91517.61
2018-02-21T05:56:44.303Z,91513.38
2018-02-21T05:57:33.365Z,91514.73
2018-02-21T05:58:24.847Z,91513.89
2018-02-21T05:59:13.900Z,91512.53
2018-02-21T06:00:02.980Z,91514.42
2018-02-21T06:00:52.035Z,91519.44
2018-02-21T06:01:41.328Z,91507.46
2018-02-21T06:02:30.414Z,91513.29
2018-02-21T06:03:20.514Z,91509.31
2018-02-21T06:04:09.576Z,91508.72
2018-02-21T06:04:58.675Z,91510.61
2018-02-21T06:05:47.781Z,91511.66
2018-02-21T06:06:36.831Z,91515.88
2018-02-21T06:07:25.914Z,91512.97
2018-02-21T06:08:14.981Z,91510.70
2018-02-21T06:09:04.069Z,91515.59
2018-02-21T06:09:53.137Z,91513.41
2018-02-21T06:10:42.204Z,91517.30
2018-02-21T06:11:31.258Z,91513.61
2018-02-21T06:12:20.312Z,91518.94
2018-02-21T06:13:09.396Z,91517.70
2018-02-21T06:13:58.445Z,91515.16
2018-02-21T06:14:47.504Z,91519.41
2018-02-21T06:15:36.559Z,91518.45
2018-02-21T06:16:25.596Z,91515.86
2018-02-21T06:17:15.134Z,91517.18
2018-02-21T06:18:04.184Z,91517.63
2018-02-21T06:18:53.462Z,91512.31
2018-02-21T06:19:42.510Z,91518.43
2018-02-21T06:20:31.561Z,91513.38
2018-02-21T06:21:20.610Z,91518.95
2018-02-21T06:22:09.682Z,91512.42
2018-02-21T06:22:58.731Z,91515.09
2018-02-21T06:23:47.798Z,91512.95
2018-02-21T06:24:36.873Z,91514.17
2018-02-21T06:25:25.932Z,91524.98
2018-02-21T06:26:14.972Z,91519.23
2018-02-21T06:27:04.032Z,91511.08
2018-02-21T06:27:53.081Z,91514.08
2018-02-21T06:28:42.125Z,91516.90
2018-02-21T06:29:31.997Z,91517.61
2018-02-21T06:30:22.111Z,91513.66
2018-02-21T06:31:11.156Z,91519.53
2018-02-21T06:32:00.200Z,91521.31
2018-02-21T06:32:49.281Z,91518.78
2018-02-21T06:33:38.350Z,91519.06
2018-02-21T06:34:27.586Z,91520.84
2018-02-21T06:35:16.692Z,91520.05
2018-02-21T06:36:05.758Z,91524.05
2018-02-21T06:36:54.824Z,91523.91
2018-02-21T06:37:43.889Z,91521.89
2018-02-21T06:38:33.011Z,91524.28
2018-02-21T06:39:22.072Z,91524.56
2018-02-21T06:40:11.165Z,91525.22
2018-02-21T06:41:00.228Z,91527.26
2018-02-21T06:41:49.293Z,91524.48
2018-02-21T06:42:38.340Z,91526.48
2018-02-21T06:43:27.402Z,91524.73
2018-02-21T06:44:16.455Z,91533.37
2018-02-21T06:45:05.509Z,91530.33
2018-02-21T06:45:54.601Z,91532.25
2018-02-21T06:46:43.664Z,91529.77
2018-02-21T06:47:35.794Z,91528.24
2018-02-21T06:48:24.851Z,91526.28
2018-02-21T06:49:13.905Z,91527.16
2018-02-21T06:50:02.999Z,91529.67
2018-02-21T06:50:52.055Z,91525.08
2018-02-21T06:51:44.234Z,91523.72
2018-02-21T06:52:33.299Z,91524.64
2018-02-21T06:53:22.374Z,91525.63
2018-02-21T06:54:11.440Z,91529.08
2018-02-21T06:55:00.509Z,91526.06
2018-02-21T06:55:49.555Z,91519.88
2018-02-21T06:56:38.603Z,91525.68
2018-02-21T06:57:27.714Z,91525.98
2018-02-21T06:58:16.790Z,91533.35
2018-02-21T06:59:05.861Z,91523.42
2018-02-21T06:59:57.642Z,91532.20
2018-02-21T07:00:46.762Z,91528.58
2018-02-21T07:01:35.839Z,91528.95
2018-02-21T07:02:34.762Z,91532.51
2018-02-21T07:03:23.845Z,91536.95
2018-02-21T07:04:12.909Z,91532.61
2018-02-21T07:05:01.994Z,91531.47
2018-02-21T07:05:51.085Z,91531.47
2018-02-21T07:06:40.167Z,91534.81
2018-02-21T07:07:29.225Z,91533.58
2018-02-21T07:08:18.275Z,91532.96
2018-02-21T07:09:07.338Z,91526.66
2018-02-21T07:09:56.602Z,91528.35
2018-02-21T07:10:45.660Z,91533.87
2018-02-21T07:11:34.953Z,91537.85
2018-02-21T07:12:24.014Z,91530.94
2018-02-21T07:13:13.073Z,91537.48
2018-02-21T07:14:02.119Z,91533.14
2018-02-21T07:14:51.152Z,91535.27
2018-02-21T07:15:40.223Z,91533.69
2018-02-21T07:16:29.269Z,91538.39
2018-02-21T07:17:18.336Z,91534.81
2018-02-21T07:18:07.397Z,91534.29
2018-02-21T07:18:56.449Z,91527.55
2018-02-21T07:19:45.509Z,91534.91
2018-02-21T07:20:34.704Z,91531.89
2018-02-21T07:21:23.773Z,91533.13
2018-02-21T07:22:12.830Z,91533.84
2018-02-21T07:23:01.893Z,91526.94
2018-02-21T07:23:50.946Z,91527.99
2018-02-21T07:24:39.994Z,91528.34
2018-02-21T07:25:29.034Z,91534.81
2018-02-21T07:26:18.138Z,91531.89
2018-02-21T07:27:07.206Z,91537.22
2018-02-21T07:27:56.258Z,91531.53
2018-02-21T07:28:45.322Z,91535.17
2018-02-21T07:29:34.370Z,91534.82
2018-02-21T07:30:23.440Z,91529.67
2018-02-21T07:31:12.500Z,91535.53
2018-02-21T07:32:01.589Z,91530.73
2018-02-21T07:32:50.649Z,91529.59
2018-02-21T07:33:39.713Z,91528.62
2018-02-21T07:34:28.769Z,91529.77
2018-02-21T07:35:17.814Z,91532.25
2018-02-21T07:36:06.861Z,91531.54
2018-02-21T07:36:55.912Z,91526.93
2018-02-21T07:37:46.792Z,91533.05
2018-02-21T07:38:35.860Z,91533.41
2018-02-21T07:39:24.905Z,91530.30
2018-02-21T07:40:13.958Z,91529.14
2018-02-21T07:41:03.002Z,91529.58
2018-02-21T07:41:52.056Z,91529.66
2018-02-21T07:42:41.106Z,91535.70
2018-02-21T07:43:31.183Z,91530.94
2018-02-21T07:44:20.230Z,91528.19
2018-02-21T07:45:09.374Z,91537.30
2018-02-21T07:45:58.448Z,91535.09
2018-02-21T07:46:47.510Z,91533.58
2018-02-21T07:47:36.662Z,91526.30
2018-02-21T07:48:25.715Z,91531.89
2018-02-21T07:49:14.770Z,91529.75
2018-02-21T07:50:03.877Z,91524.70
2018-02-21T07:50:52.993Z,91524.30
2018-02-21T07:51:42.051Z,91525.17
2018-02-21T07:52:31.091Z,91524.36
2018-02-21T07:53:20.128Z,91523.72
2018-02-21T07:54:09.186Z,91521.24
2018-02-21T07:54:58.240Z,91522.73
2018-02-21T07:55:47.288Z,91519.36
2018-02-21T07:56:36.390Z,91520.49
2018-02-21T07:57:25.445Z,91518.08
2018-02-21T07:58:14.520Z,91520.81
2018-02-21T07:59:03.581Z,91511.83
2018-02-21T07:59:52.736Z,91515.95
2018-02-21T08:00:41.792Z,91519.81
2018-02-21T08:01:30.969Z,91519.39
2018-02-21T08:02:20.032Z,91521.00
2018-02-21T08:03:09.072Z,91520.98
2018-02-21T08:03:58.120Z,91518.83
2018-02-21T08:04:47.337Z,91522.81
2018-02-21T08:05:36.388Z,91525.13
2018-02-21T08:06:25.449Z,91520.41
2018-02-21T08:07:14.534Z,91518.47
2018-02-21T08:08:03.610Z,91522.30
2018-02-21T08:08:52.669Z,91515.45
2018-02-21T08:09:41.721Z,91517.78
2018-02-21T08:10:30.767Z,91521.95
2018-02-21T08:11:19.832Z,91520.24
2018-02-21T08:12:08.883Z,91519.27
2018-02-21T08:12:57.977Z,91519.06
2018-02-21T08:13:47.042Z,91523.95
2018-02-21T08:14:36.113Z,91522.52
2018-02-21T08:15:25.168Z,91520.20
2018-02-21T08:16:14.221Z,91521.42
2018-02-21T08:17:03.289Z,91514.61
2018-02-21T08:17:52.329Z,91520.73
2018-02-21T08:18:41.600Z,91520.38
2018-02-21T08:19:30.651Z,91520.31
2018-02-21T08:20:19.743Z,91517.80
2018-02-21T08:21:08.793Z,91518.86
2018-02-21T08:21:57.827Z,91525.02
2018-02-21T08:22:46.915Z,91521.19
2018-02-21T08:23:35.956Z,91515.73
2018-02-21T08:24:25.012Z,91520.39
2018-02-21T08:25:14.047Z,91516.88
2018-02-21T08:26:03.155Z,91519.03
2018-02-21T08:26:52.195Z,91519.86
2018-02-21T08:27:41.244Z,91525.44
2018-02-21T08:28:30.326Z,91522.77
2018-02-21T08:29:19.401Z,91526.28
2018-02-21T08:30:08.439Z,91517.78
2018-02-21T08:30:57.608Z,91520.12
2018-02-21T08:31:46.675Z,91529.66
2018-02-21T08:32:35.728Z,91525.19
2018-02-21T08:33:24.781Z,91523.16
2018-02-21T08:34:13.853Z,91513.44
2018-02-21T08:35:02.935Z,91513.94
2018-02-21T08:35:52.001Z,91513.44
2018-02-21T08:36:41.086Z,91509.41
2018-02-21T08:37:30.146Z,91505.28
2018-02-21T08:38:19.226Z,91505.80
2018-02-21T08:39:08.283Z,91507.52
2018-02-21T08:39:57.323Z,91508.90
2018-02-21T08:40:46.372Z,91505.27
2018-02-21T08:41:35.426Z,91506.12
2018-02-21T08:42:24.713Z,91505.35
2018-02-21T08:43:13.762Z,91507.40
2018-02-21T08:44:02.816Z,91509.01
2018-02-21T08:44:51.872Z,91505.55
2018-02-21T08:45:40.914Z,91508.50
2018-02-21T08:46:29.973Z,91510.86
2018-02-21T08:47:19.029Z,91511.45
2018-02-21T08:48:08.202Z,91508.87
2018-02-21T08:48:57.259Z,91513.63
2018-02-21T08:49:46.295Z,91513.57
2018-02-21T08:50:35.393Z,91512.39
2018-02-21T08:51:24.447Z,91511.30
2018-02-21T08:52:13.521Z,91514.77
2018-02-21T08:53:02.569Z,91515.89
2018-02-21T08:53:51.692Z,91516.16
2018-02-21T08:54:40.743Z,91513.73
2018-02-21T08:55:29.789Z,91517.37
2018-02-21T08:56:18.843Z,91517.95
2018-02-21T08:57:07.892Z,91511.10
2018-02-21T08:57:56.992Z,91520.97
2018-02-21T08:58:46.016Z,91517.42
2018-02-21T08:59:35.372Z,91515.16
2018-02-21T09:00:25.325Z,91511.30
2018-02-21T09:01:14.378Z,91512.62
2018-02-21T09:02:03.424Z,91509.80
2018-02-21T09:02:52.520Z,91513.30
2018-02-21T09:03:41.574Z,91511.70
2018-02-21T09:04:30.703Z,91517.02
2018-02-21T09:05:19.762Z,91524.75
2018-02-21T09:06:08.814Z,91522.34
2018-02-21T09:06:57.865Z,91523.49
2018-02-21T09:07:46.931Z,91517.93
2018-02-21T09:08:36.018Z,91526.06
2018-02-21T09:09:25.059Z,91524.25
2018-02-21T09:10:14.144Z,91521.93
2018-02-21T09:11:03.203Z,91522.33
2018-02-21T09:11:52.243Z,91521.80
2018-02-21T09:12:41.277Z,91521.78
2018-02-21T09:13:30.335Z,91524.36
2018-02-21T09:14:19.389Z,91525.13
2018-02-21T09:15:08.433Z,91519.23
2018-02-21T09:15:57.671Z,91522.52
2018-02-21T09:16:46.793Z,91521.18
2018-02-21T09:17:35.877Z,91525.98
2018-02-21T09:18:24.930Z,91525.78
2018-02-21T09:19:13.977Z,91525.95
2018-02-21T09:20:03.042Z,91528.30
2018-02-21T09:20:52.082Z,91520.58
2018-02-21T09:21:41.225Z,91529.81
2018-02-21T09:22:30.286Z,91530.41
2018-02-21T09:23:19.383Z,91523.21
2018-02-21T09:24:08.427Z,91528.30
2018-02-21T09:24:57.464Z,91530.68
2018-02-21T09:25:46.512Z,91526.08
2018-02-21T09:26:35.555Z,91527.90
2018-02-21T09:27:24.676Z,91526.41
2018-02-21T09:28:13.709Z,91529.56
2018-02-21T09:29:02.773Z,91523.53
2018-02-21T09:29:51.821Z,91526.68
2018-02-21T09:30:40.865Z,91525.66
2018-02-21T09:31:29.931Z,91526.22
2018-02-21T09:32:18.979Z,91521.47
2018-02-21T09:33:08.293Z,91520.89
2018-02-21T09:33:57.338Z,91524.31
2018-02-21T09:34:46.397Z,91526.98
2018-02-21T09:35:35.452Z,91529.54
2018-02-21T09:36:24.505Z,91523.55
2018-02-21T09:37:13.551Z,91519.81
2018-02-21T09:38:02.605Z,91520.84
2018-02-21T09:38:51.690Z,91523.56
2018-02-21T09:39:40.760Z,91522.15
2018-02-21T09:40:29.811Z,91522.55
2018-02-21T09:41:19.224Z,91522.94
2018-02-21T09:42:08.267Z,91526.35